Cumberland Center, Maine
Current Conditions -  °F | °C
As of 5:58 PM on Tuesday 21 Oct 2014 (Local Time) from KPWM Reporting Station
Heavy Rain Heavy Rain  
Wind Chill: 54°   Ceiling: 400
Heat Index: 54°   Visibility: 2.5mi
Dew Point: 52°   Wind: 7mph
Humidity: 93%   Direction: 10°N
Pressure: 30"   Gusts: NA
Location:  43.8°N, 70.25°W
Report Text: KPWM 212158Z 01006KT 2 1/2SM +RA BR OVC004 12/11 A3000 RMK AO2 P0002 T01220111
Loading
Personal Weather Stations






























Interactive Weather Map
Tropical Storm Tracking
New forecast layout! Learn more

10-Day Weather Forecast

Advertisements
Track Severe Weather on mobile